createdAt,value
2019-06-26T04:00:55.410Z,19.62
2019-06-26T04:01:55.584Z,19.73
2019-06-26T04:02:55.775Z,19.59
2019-06-26T04:03:57.494Z,19.74
2019-06-26T04:04:56.100Z,19.77
2019-06-26T04:05:56.276Z,19.71
2019-06-26T04:06:56.450Z,19.74
2019-06-26T04:07:56.628Z,19.70
2019-06-26T04:08:56.805Z,19.74
2019-06-26T04:09:57.002Z,19.81
2019-06-26T04:10:57.155Z,19.81
2019-06-26T04:11:57.327Z,19.70
2019-06-26T04:12:57.503Z,19.74
2019-06-26T04:13:57.678Z,19.76
2019-06-26T04:14:57.866Z,19.82
2019-06-26T04:15:58.028Z,19.74
2019-06-26T04:16:58.203Z,19.76
2019-06-26T04:17:58.382Z,19.76
2019-06-26T04:18:58.560Z,19.70
2019-06-26T04:19:58.728Z,19.73
2019-06-26T04:20:58.903Z,19.69
2019-06-26T04:21:59.088Z,19.70
2019-06-26T04:22:59.259Z,19.66
2019-06-26T04:23:59.433Z,19.74
2019-06-26T04:24:59.612Z,19.74
2019-06-26T04:25:59.795Z,19.85
2019-06-26T04:26:59.957Z,19.88
2019-06-26T04:28:00.135Z,19.81
2019-06-26T04:29:00.314Z,19.86
2019-06-26T04:30:00.488Z,19.82
2019-06-26T04:31:00.662Z,19.82
2019-06-26T04:32:00.837Z,19.85
2019-06-26T04:33:01.012Z,19.96
2019-06-26T04:34:01.192Z,19.91
2019-06-26T04:35:01.395Z,19.89
2019-06-26T04:36:01.540Z,19.89
2019-06-26T04:37:01.715Z,20.02
2019-06-26T04:38:01.890Z,19.99
2019-06-26T04:39:02.065Z,19.99
2019-06-26T04:40:02.239Z,20.03
2019-06-26T04:41:02.416Z,19.99
2019-06-26T04:42:02.591Z,20.10
2019-06-26T04:43:02.815Z,20.06
2019-06-26T04:44:02.948Z,20.18
2019-06-26T04:45:03.125Z,20.13
2019-06-26T04:46:03.298Z,20.14
2019-06-26T04:47:03.467Z,20.31
2019-06-26T04:48:06.920Z,20.28
2019-06-26T04:49:03.824Z,20.37
2019-06-26T04:50:03.993Z,20.37
2019-06-26T04:51:04.171Z,20.36
2019-06-26T04:52:04.344Z,20.40
2019-06-26T04:53:04.519Z,20.51
2019-06-26T04:54:04.696Z,20.47
2019-06-26T04:55:04.873Z,20.50
2019-06-26T04:56:05.049Z,20.52
2019-06-26T04:57:05.224Z,20.59
2019-06-26T04:58:05.399Z,20.65
2019-06-26T04:59:05.576Z,20.70
2019-06-26T05:00:05.755Z,20.82
2019-06-26T05:01:05.931Z,20.85
2019-06-26T05:02:06.111Z,20.92
2019-06-26T05:03:06.284Z,20.96
2019-06-26T05:04:06.476Z,20.97
2019-06-26T05:05:06.674Z,21.03
2019-06-26T05:06:06.814Z,21.09
2019-06-26T05:07:06.989Z,21.15
2019-06-26T05:08:07.491Z,21.14
2019-06-26T05:09:07.362Z,21.21
2019-06-26T05:10:07.537Z,21.30
2019-06-26T05:11:07.716Z,21.24
2019-06-26T05:12:07.886Z,21.30
2019-06-26T05:13:08.069Z,21.42
2019-06-26T05:14:08.246Z,21.33
2019-06-26T05:15:08.421Z,21.43
2019-06-26T05:16:15.003Z,21.36
2019-06-26T05:17:08.773Z,21.50
2019-06-26T05:18:08.948Z,21.45
2019-06-26T05:19:09.122Z,21.50
2019-06-26T05:20:09.296Z,21.46
2019-06-26T05:21:09.482Z,21.54
2019-06-26T05:22:09.647Z,21.62
2019-06-26T05:23:09.829Z,21.69
2019-06-26T05:24:10.006Z,21.70
2019-06-26T05:25:10.181Z,21.73
2019-06-26T05:26:10.361Z,21.83
2019-06-26T05:27:10.532Z,21.96
2019-06-26T05:28:10.715Z,22.02
2019-06-26T05:29:10.889Z,22.00
2019-06-26T05:30:11.085Z,22.13
2019-06-26T05:31:11.262Z,22.20
2019-06-26T05:32:11.416Z,22.25
2019-06-26T05:33:11.593Z,22.36
2019-06-26T05:34:11.771Z,22.33
2019-06-26T05:35:11.946Z,22.43
2019-06-26T05:36:12.135Z,22.53
2019-06-26T05:37:12.307Z,22.43
2019-06-26T05:38:12.478Z,22.54
2019-06-26T05:39:12.655Z,22.59
2019-06-26T05:40:12.850Z,22.73
2019-06-26T05:41:13.009Z,22.72
2019-06-26T05:42:13.185Z,22.81
2019-06-26T05:43:13.360Z,22.84
2019-06-26T05:44:13.538Z,22.93
2019-06-26T05:45:13.711Z,22.91
2019-06-26T05:46:26.917Z,23.05
2019-06-26T05:47:14.062Z,23.17
2019-06-26T05:48:14.713Z,23.17
2019-06-26T05:49:14.409Z,23.17
2019-06-26T05:50:14.584Z,23.25
2019-06-26T05:51:14.760Z,23.32
2019-06-26T05:52:16.673Z,23.21
2019-06-26T05:53:15.122Z,23.37
2019-06-26T05:54:15.302Z,23.41
2019-06-26T05:55:15.466Z,23.50
2019-06-26T05:56:15.652Z,23.61
2019-06-26T05:57:15.829Z,23.63
2019-06-26T05:58:15.994Z,23.69
2019-06-26T05:59:16.170Z,23.74
2019-06-26T06:00:16.383Z,23.76
2019-06-26T06:01:16.525Z,23.80
2019-06-26T06:02:16.706Z,23.88
2019-06-26T06:03:16.880Z,23.95
2019-06-26T06:04:17.053Z,24.02
2019-06-26T06:05:17.230Z,24.18
2019-06-26T06:06:17.407Z,24.24
2019-06-26T06:07:17.584Z,24.30
2019-06-26T06:08:17.762Z,24.42
2019-06-26T06:09:17.940Z,24.58
2019-06-26T06:10:18.116Z,24.66
2019-06-26T06:11:18.292Z,24.76
2019-06-26T06:12:18.471Z,24.78
2019-06-26T06:13:18.658Z,24.84
2019-06-26T06:14:18.823Z,24.92
2019-06-26T06:15:19.010Z,25.04
2019-06-26T06:16:19.178Z,25.14
2019-06-26T06:17:19.357Z,25.17
2019-06-26T06:18:19.532Z,25.29
2019-06-26T06:19:19.801Z,25.26
2019-06-26T06:20:19.895Z,25.32
2019-06-26T06:21:20.115Z,25.53
2019-06-26T06:22:20.235Z,25.60
2019-06-26T06:23:20.411Z,25.65
2019-06-26T06:24:20.592Z,25.72
2019-06-26T06:25:20.772Z,25.70
2019-06-26T06:26:20.947Z,25.80
2019-06-26T06:27:21.125Z,25.84
2019-06-26T06:28:21.302Z,25.98
2019-06-26T06:29:21.483Z,25.96
2019-06-26T06:30:21.655Z,26.13
2019-06-26T06:31:21.831Z,26.13
2019-06-26T06:32:22.008Z,26.28
2019-06-26T06:33:22.204Z,26.28
2019-06-26T06:34:22.363Z,26.31
2019-06-26T06:35:22.540Z,26.40
2019-06-26T06:36:22.720Z,26.47
2019-06-26T06:37:22.902Z,26.59
2019-06-26T06:38:23.074Z,26.65
2019-06-26T06:39:23.251Z,26.74
2019-06-26T06:40:23.431Z,26.77
2019-06-26T06:41:23.607Z,26.88
2019-06-26T06:42:23.787Z,26.90
2019-06-26T06:43:23.959Z,26.92
2019-06-26T06:44:24.137Z,27.08
2019-06-26T06:45:24.435Z,27.18
2019-06-26T06:46:24.494Z,27.15
2019-06-26T06:47:24.676Z,27.20
2019-06-26T06:48:24.852Z,27.26
2019-06-26T06:49:25.027Z,27.42
2019-06-26T06:50:25.203Z,27.51
2019-06-26T06:51:25.382Z,27.63
2019-06-26T06:52:25.567Z,27.67
2019-06-26T06:53:25.739Z,27.75
2019-06-26T06:54:25.917Z,27.74
2019-06-26T06:55:26.091Z,27.86
2019-06-26T06:56:26.275Z,27.90
2019-06-26T06:57:26.441Z,28.11
2019-06-26T06:58:30.078Z,28.04
2019-06-26T06:59:26.794Z,28.15
2019-06-26T07:00:26.969Z,28.33
2019-06-26T07:01:27.150Z,28.32
2019-06-26T07:02:27.329Z,28.37
2019-06-26T07:03:27.495Z,28.32
2019-06-26T07:04:27.669Z,28.52
2019-06-26T07:05:27.847Z,28.56
2019-06-26T07:06:28.032Z,28.67
2019-06-26T07:07:28.200Z,28.69
2019-06-26T07:08:28.394Z,28.69
2019-06-26T07:09:28.565Z,28.78
2019-06-26T07:10:28.726Z,28.76
2019-06-26T07:11:28.920Z,28.84
2019-06-26T07:12:29.098Z,28.97
2019-06-26T07:13:29.274Z,28.94
2019-06-26T07:14:29.450Z,29.02
2019-06-26T07:15:29.631Z,29.01
2019-06-26T07:16:29.807Z,29.22
2019-06-26T07:17:29.984Z,29.17
2019-06-26T07:18:30.163Z,29.14
2019-06-26T07:19:30.351Z,29.26
2019-06-26T07:20:30.524Z,29.26
2019-06-26T07:21:30.696Z,29.22
2019-06-26T07:22:30.874Z,29.29
2019-06-26T07:23:31.050Z,29.41
2019-06-26T07:24:31.225Z,29.42
2019-06-26T07:25:31.404Z,29.53
2019-06-26T07:26:31.588Z,29.53
2019-06-26T07:27:31.761Z,29.59
2019-06-26T07:28:31.937Z,29.65
2019-06-26T07:29:32.115Z,29.75
2019-06-26T07:30:32.291Z,29.72
2019-06-26T07:31:32.470Z,29.88
2019-06-26T07:32:32.647Z,29.86
2019-06-26T07:33:32.823Z,29.95
2019-06-26T07:34:33.002Z,30.05
2019-06-26T07:35:33.181Z,30.10
2019-06-26T07:36:33.359Z,30.08
2019-06-26T07:37:33.536Z,30.03
2019-06-26T07:38:33.711Z,30.12
2019-06-26T07:39:33.890Z,30.18
2019-06-26T07:40:34.067Z,30.21
2019-06-26T07:41:34.241Z,30.39
2019-06-26T07:42:34.419Z,30.46
2019-06-26T07:43:34.598Z,30.48
2019-06-26T07:44:34.774Z,30.57
2019-06-26T07:45:34.950Z,30.68
2019-06-26T07:46:35.128Z,30.78
2019-06-26T07:47:43.326Z,30.72
2019-06-26T07:48:35.484Z,30.72
2019-06-26T07:49:35.661Z,30.81
2019-06-26T07:50:35.837Z,30.90
2019-06-26T07:51:36.017Z,31.00
2019-06-26T07:52:36.191Z,31.09
2019-06-26T07:53:36.370Z,31.17
2019-06-26T07:54:36.552Z,31.22
2019-06-26T07:55:40.371Z,31.31
2019-06-26T07:56:36.901Z,31.40
2019-06-26T07:57:37.080Z,31.59
2019-06-26T07:58:37.259Z,31.49
2019-06-26T07:59:37.437Z,31.56
2019-06-26T08:00:37.620Z,31.61
2019-06-26T08:01:37.798Z,31.62
2019-06-26T08:02:37.976Z,31.62
2019-06-26T08:03:38.156Z,31.61
2019-06-26T08:04:38.332Z,31.56
2019-06-26T08:05:42.472Z,31.59
2019-06-26T08:06:38.708Z,31.64
2019-06-26T08:07:38.865Z,31.73
2019-06-26T08:08:39.033Z,31.62
2019-06-26T08:09:39.225Z,31.62
2019-06-26T08:10:39.389Z,31.78
2019-06-26T08:11:39.565Z,31.87
2019-06-26T08:12:39.743Z,31.93
2019-06-26T08:13:39.925Z,31.96
2019-06-26T08:14:40.113Z,31.93
2019-06-26T08:15:40.278Z,31.93
2019-06-26T08:16:40.459Z,32.03
2019-06-26T08:17:40.633Z,32.07
2019-06-26T08:18:40.881Z,32.18
2019-06-26T08:19:40.995Z,32.30
2019-06-26T08:20:51.873Z,32.43
2019-06-26T08:21:41.344Z,32.56
2019-06-26T08:22:41.520Z,32.70
2019-06-26T08:23:41.700Z,32.67
2019-06-26T08:24:41.881Z,32.89
2019-06-26T08:25:42.056Z,33.00
2019-06-26T08:26:42.235Z,33.14
2019-06-26T08:27:42.414Z,33.46
2019-06-26T08:28:42.593Z,33.73
2019-06-26T08:29:42.771Z,33.96
2019-06-26T08:30:42.947Z,34.27
2019-06-26T08:31:43.129Z,34.57
2019-06-26T08:32:43.303Z,34.77
2019-06-26T08:33:43.484Z,35.11
2019-06-26T08:34:43.661Z,35.29
2019-06-26T08:35:43.836Z,35.66
2019-06-26T08:36:44.017Z,35.78
2019-06-26T08:37:44.197Z,36.08
2019-06-26T08:38:44.377Z,36.04
2019-06-26T08:39:44.559Z,36.18
2019-06-26T08:40:44.743Z,36.30
2019-06-26T08:41:44.915Z,36.42
2019-06-26T08:42:45.436Z,36.25
2019-06-26T08:43:45.218Z,36.24
2019-06-26T08:44:45.389Z,36.28
2019-06-26T08:45:45.567Z,36.28
2019-06-26T08:46:45.749Z,36.23
2019-06-26T08:47:45.928Z,36.23
2019-06-26T08:48:46.105Z,36.08
2019-06-26T08:49:46.281Z,35.95
2019-06-26T08:50:46.459Z,35.76
2019-06-26T08:51:46.639Z,35.63
2019-06-26T08:52:46.817Z,35.52
2019-06-26T08:53:46.993Z,35.44
2019-06-26T08:54:47.174Z,35.33
2019-06-26T08:55:47.356Z,35.05
2019-06-26T08:56:47.531Z,34.74
2019-06-26T08:57:47.713Z,34.74
2019-06-26T08:58:47.893Z,34.78
2019-06-26T08:59:48.072Z,34.86
2019-06-26T09:00:48.252Z,34.89
2019-06-26T09:01:48.429Z,34.83
2019-06-26T09:02:48.610Z,34.86
2019-06-26T09:03:48.786Z,34.96
2019-06-26T09:04:48.987Z,34.97
2019-06-26T09:05:49.145Z,35.15
2019-06-26T09:06:49.321Z,35.00
2019-06-26T09:07:49.541Z,35.14
2019-06-26T09:08:49.683Z,35.11
2019-06-26T09:09:49.863Z,35.05
2019-06-26T09:10:50.025Z,35.11
2019-06-26T09:11:50.212Z,35.18
2019-06-26T09:12:50.401Z,35.14
2019-06-26T09:13:50.574Z,35.30
2019-06-26T09:14:50.751Z,35.26
2019-06-26T09:15:50.932Z,35.30
2019-06-26T09:16:51.108Z,35.31
2019-06-26T09:17:51.290Z,35.48
2019-06-26T09:18:51.474Z,35.58
2019-06-26T09:19:51.648Z,35.64
2019-06-26T09:20:51.826Z,35.68
2019-06-26T09:21:52.015Z,35.80
2019-06-26T09:22:52.182Z,35.98
2019-06-26T09:23:52.358Z,35.83
2019-06-26T09:24:52.604Z,35.92
2019-06-26T09:25:52.716Z,35.93
2019-06-26T09:26:52.902Z,36.09
2019-06-26T09:27:53.080Z,36.04
2019-06-26T09:28:53.260Z,36.08
2019-06-26T09:29:53.441Z,36.21
2019-06-26T09:30:53.617Z,36.31
2019-06-26T09:31:53.796Z,36.31
2019-06-26T09:32:53.984Z,36.46
2019-06-26T09:33:54.158Z,36.54
2019-06-26T09:34:54.340Z,36.49
2019-06-26T09:35:54.513Z,36.54
2019-06-26T09:36:54.693Z,36.54
2019-06-26T09:37:54.883Z,36.54
2019-06-26T09:38:57.904Z,36.54
2019-06-26T09:39:55.246Z,36.67
2019-06-26T09:40:55.469Z,36.55
2019-06-26T09:41:55.599Z,36.76
2019-06-26T09:42:55.777Z,36.77
2019-06-26T09:43:55.966Z,36.76
2019-06-26T09:44:56.127Z,36.76
2019-06-26T09:45:56.308Z,36.88
2019-06-26T09:46:56.495Z,36.88
2019-06-26T09:47:56.672Z,36.73
2019-06-26T09:48:56.852Z,36.47
2019-06-26T09:49:57.033Z,36.35
2019-06-26T09:50:57.211Z,36.30
2019-06-26T09:51:57.418Z,36.23
2019-06-26T09:52:57.575Z,35.89
2019-06-26T09:53:57.754Z,35.79
2019-06-26T09:54:57.933Z,35.89
2019-06-26T09:55:58.118Z,36.14
2019-06-26T09:56:58.295Z,36.12
2019-06-26T09:57:58.475Z,36.23
2019-06-26T09:58:58.690Z,36.45
2019-06-26T09:59:58.835Z,36.47
2019-06-26T10:00:59.024Z,36.64
2019-06-26T10:01:59.196Z,36.65
2019-06-26T10:02:59.374Z,36.65
2019-06-26T10:03:59.557Z,36.64
2019-06-26T10:04:59.734Z,36.74
2019-06-26T10:05:59.922Z,36.67
2019-06-26T10:07:00.187Z,36.54
2019-06-26T10:08:00.277Z,36.58
2019-06-26T10:09:00.455Z,36.55
2019-06-26T10:10:00.635Z,36.62
2019-06-26T10:11:00.817Z,36.62
2019-06-26T10:12:00.994Z,36.79
2019-06-26T10:13:01.175Z,36.86
2019-06-26T10:14:01.357Z,37.13
2019-06-26T10:15:01.535Z,37.33
2019-06-26T10:16:01.716Z,37.36
2019-06-26T10:17:01.895Z,37.21
2019-06-26T10:18:02.079Z,37.36
2019-06-26T10:19:10.204Z,37.42
2019-06-26T10:20:02.441Z,37.33
2019-06-26T10:21:02.624Z,37.63
2019-06-26T10:22:02.804Z,37.70
2019-06-26T10:23:02.985Z,37.96
2019-06-26T10:24:03.179Z,38.06
2019-06-26T10:25:03.358Z,38.17
2019-06-26T10:26:03.528Z,38.36
2019-06-26T10:27:03.710Z,38.54
2019-06-26T10:28:03.899Z,38.77
2019-06-26T10:29:04.301Z,38.99
2019-06-26T10:30:04.314Z,39.18
2019-06-26T10:31:04.444Z,39.40
2019-06-26T10:32:04.619Z,39.43
2019-06-26T10:33:04.802Z,39.40
2019-06-26T10:34:04.979Z,39.18
2019-06-26T10:35:05.160Z,39.26
2019-06-26T10:36:05.341Z,39.46
2019-06-26T10:37:05.525Z,39.75
2019-06-26T10:38:05.743Z,39.74
2019-06-26T10:39:05.894Z,39.86
2019-06-26T10:40:06.132Z,40.11
2019-06-26T10:41:06.254Z,40.05
2019-06-26T10:42:06.491Z,40.21
2019-06-26T10:43:06.616Z,40.38
2019-06-26T10:44:06.794Z,40.49
2019-06-26T10:45:06.978Z,40.72
2019-06-26T10:46:07.163Z,40.66
2019-06-26T10:47:07.340Z,40.62
2019-06-26T10:48:07.524Z,40.05
2019-06-26T10:49:07.709Z,40.21
2019-06-26T10:50:07.891Z,40.11
2019-06-26T10:51:08.074Z,39.92
2019-06-26T10:52:08.261Z,40.09
2019-06-26T10:53:08.439Z,40.28
2019-06-26T10:54:08.626Z,40.72
2019-06-26T10:55:08.826Z,40.77
2019-06-26T10:56:08.992Z,40.91
2019-06-26T10:57:09.180Z,41.06
2019-06-26T10:58:09.358Z,41.25
2019-06-26T10:59:09.543Z,41.16
2019-06-26T11:00:09.742Z,41.00
2019-06-26T11:01:09.913Z,41.25
2019-06-26T11:02:10.095Z,41.29
2019-06-26T11:03:10.278Z,41.52
2019-06-26T11:04:10.467Z,41.83
2019-06-26T11:05:10.646Z,41.75
2019-06-26T11:06:10.836Z,41.78
2019-06-26T11:07:11.015Z,41.85
2019-06-26T11:08:11.202Z,41.75
2019-06-26T11:09:11.386Z,41.94
2019-06-26T11:10:11.571Z,41.70
2019-06-26T11:11:11.752Z,41.83
2019-06-26T11:12:11.938Z,41.90
2019-06-26T11:13:12.128Z,42.06
2019-06-26T11:14:12.305Z,42.21
2019-06-26T11:15:12.493Z,42.38
2019-06-26T11:16:12.677Z,42.36
2019-06-26T11:17:12.863Z,42.32
2019-06-26T11:18:13.055Z,42.38
2019-06-26T11:19:13.237Z,42.33
2019-06-26T11:20:13.417Z,42.29
2019-06-26T11:21:13.603Z,42.28
2019-06-26T11:22:13.786Z,42.28
2019-06-26T11:23:13.970Z,42.25
2019-06-26T11:24:14.164Z,42.35
2019-06-26T11:25:14.343Z,42.17
2019-06-26T11:26:14.532Z,42.14
2019-06-26T11:27:14.715Z,42.14
2019-06-26T11:28:14.903Z,41.99
2019-06-26T11:29:15.093Z,41.85
2019-06-26T11:30:15.273Z,41.82
2019-06-26T11:31:15.459Z,41.88
2019-06-26T11:32:15.645Z,41.97
2019-06-26T11:33:15.828Z,41.90
2019-06-26T11:34:16.015Z,41.77
2019-06-26T11:35:16.199Z,41.82
2019-06-26T11:36:16.384Z,41.91
2019-06-26T11:37:16.575Z,42.02
2019-06-26T11:38:16.755Z,42.12
2019-06-26T11:39:16.941Z,42.44
2019-06-26T11:40:17.135Z,42.47
2019-06-26T11:41:17.313Z,42.48
2019-06-26T11:42:17.499Z,42.41
2019-06-26T11:43:17.691Z,42.63
2019-06-26T11:44:17.873Z,42.79
2019-06-26T11:45:18.058Z,42.57
2019-06-26T11:46:18.242Z,42.84
2019-06-26T11:47:18.429Z,42.73
2019-06-26T11:48:18.631Z,42.82
2019-06-26T11:49:18.800Z,42.82
2019-06-26T11:50:18.994Z,42.94
2019-06-26T11:51:19.237Z,42.92
2019-06-26T11:52:19.427Z,42.91
2019-06-26T11:53:19.555Z,42.94
2019-06-26T11:54:19.739Z,42.89
2019-06-26T11:55:19.927Z,42.79
2019-06-26T11:56:20.113Z,42.79
2019-06-26T11:57:20.302Z,42.99
2019-06-26T11:58:20.484Z,43.08
2019-06-26T11:59:20.674Z,43.23
2019-06-26T12:00:20.865Z,43.10
2019-06-26T12:01:21.056Z,43.15
2019-06-26T12:02:21.236Z,43.31
2019-06-26T12:03:21.423Z,43.20
2019-06-26T12:04:21.769Z,43.18
2019-06-26T12:05:21.797Z,43.35
2019-06-26T12:06:21.983Z,43.31
2019-06-26T12:07:22.175Z,43.36
2019-06-26T12:08:22.366Z,43.18
2019-06-26T12:09:22.558Z,43.28
2019-06-26T12:10:22.744Z,43.62
2019-06-26T12:11:22.926Z,43.53
2019-06-26T12:12:23.124Z,43.72
2019-06-26T12:13:23.300Z,43.67
2019-06-26T12:14:23.495Z,43.38
2019-06-26T12:15:23.679Z,43.55
2019-06-26T12:16:23.885Z,43.46
2019-06-26T12:17:24.053Z,43.33
2019-06-26T12:18:24.236Z,43.24
2019-06-26T12:19:24.426Z,43.45
2019-06-26T12:20:24.614Z,43.20
2019-06-26T12:21:24.802Z,43.42
2019-06-26T12:22:24.987Z,43.69
2019-06-26T12:23:25.177Z,43.83
2019-06-26T12:24:26.639Z,44.10
2019-06-26T12:25:25.558Z,44.18
2019-06-26T12:26:25.748Z,44.17
2019-06-26T12:27:25.937Z,43.83
2019-06-26T12:28:26.126Z,43.73
2019-06-26T12:29:26.309Z,43.77
2019-06-26T12:30:26.500Z,43.65
2019-06-26T12:31:26.689Z,43.67
2019-06-26T12:32:26.876Z,43.35
2019-06-26T12:33:27.063Z,43.35
2019-06-26T12:34:27.254Z,43.36
2019-06-26T12:35:27.443Z,43.43
2019-06-26T12:36:27.632Z,43.48
2019-06-26T12:37:37.158Z,43.46
2019-06-26T12:38:28.008Z,43.61
2019-06-26T12:39:28.200Z,43.68
2019-06-26T12:40:31.034Z,43.68
2019-06-26T12:41:28.581Z,43.55
2019-06-26T12:42:28.766Z,43.35
2019-06-26T12:43:28.955Z,43.49
2019-06-26T12:44:29.144Z,43.58
2019-06-26T12:45:29.333Z,43.73
2019-06-26T12:46:29.536Z,43.64
2019-06-26T12:47:29.709Z,43.89
2019-06-26T12:48:29.899Z,43.64
2019-06-26T12:49:30.086Z,43.74
2019-06-26T12:50:35.850Z,43.64
2019-06-26T12:51:30.465Z,43.76
2019-06-26T12:52:30.653Z,43.73
2019-06-26T12:53:30.841Z,43.87
2019-06-26T12:54:31.028Z,43.98
2019-06-26T12:55:32.967Z,43.80
2019-06-26T12:56:31.406Z,43.89
2019-06-26T12:57:31.595Z,43.83
2019-06-26T12:58:31.782Z,43.61
2019-06-26T12:59:31.971Z,42.70
2019-06-26T13:00:32.161Z,41.85
2019-06-26T13:01:32.347Z,41.40
2019-06-26T13:02:32.536Z,40.81
2019-06-26T13:03:32.722Z,41.25
2019-06-26T13:04:32.913Z,41.70
2019-06-26T13:05:33.100Z,41.99
2019-06-26T13:06:33.294Z,42.19
2019-06-26T13:07:33.483Z,42.38
2019-06-26T13:08:33.663Z,42.45
2019-06-26T13:09:33.850Z,42.78
2019-06-26T13:10:48.474Z,42.99
2019-06-26T13:11:34.237Z,43.11
2019-06-26T13:12:34.435Z,43.26
2019-06-26T13:13:34.607Z,43.41
2019-06-26T13:14:34.791Z,43.18
2019-06-26T13:15:35.017Z,42.36
2019-06-26T13:16:35.163Z,41.99
2019-06-26T13:17:35.349Z,41.99
2019-06-26T13:18:35.536Z,42.28
2019-06-26T13:19:35.724Z,42.53
2019-06-26T13:20:51.754Z,42.31
2019-06-26T13:21:36.115Z,42.28
2019-06-26T13:22:36.323Z,42.25
2019-06-26T13:23:36.476Z,42.45
2019-06-26T13:24:36.672Z,42.74
2019-06-26T13:25:36.847Z,43.06
2019-06-26T13:26:37.034Z,43.36
2019-06-26T13:27:37.219Z,43.61
2019-06-26T13:28:37.412Z,43.62
2019-06-26T13:29:37.595Z,43.77
2019-06-26T13:30:37.786Z,43.73
2019-06-26T13:31:37.972Z,43.60
2019-06-26T13:32:38.159Z,43.62
2019-06-26T13:33:38.346Z,43.65
2019-06-26T13:34:38.531Z,43.68
2019-06-26T13:35:38.720Z,43.76
2019-06-26T13:36:38.905Z,43.76
2019-06-26T13:37:39.093Z,43.79
2019-06-26T13:38:39.286Z,43.84
2019-06-26T13:39:39.473Z,43.99
2019-06-26T13:40:41.092Z,44.20
2019-06-26T13:41:39.847Z,43.91
2019-06-26T13:42:40.038Z,43.87
2019-06-26T13:43:40.244Z,44.11
2019-06-26T13:44:40.412Z,44.33
2019-06-26T13:45:40.599Z,44.45
2019-06-26T13:46:40.790Z,44.64
2019-06-26T13:47:40.974Z,44.79
2019-06-26T13:48:41.169Z,44.64
2019-06-26T13:49:41.352Z,44.48
2019-06-26T13:50:41.541Z,43.72
2019-06-26T13:51:41.731Z,42.72
2019-06-26T13:52:41.918Z,42.36
2019-06-26T13:53:42.106Z,41.91
2019-06-26T13:54:42.317Z,41.21
2019-06-26T13:55:42.481Z,40.53
2019-06-26T13:56:42.670Z,39.96
2019-06-26T13:57:42.856Z,39.70
2019-06-26T13:58:43.042Z,39.36
2019-06-26T13:59:43.231Z,39.14
2019-06-26T14:00:43.417Z,39.07
2019-06-26T14:01:43.604Z,39.77
2019-06-26T14:02:43.790Z,40.06
2019-06-26T14:03:43.985Z,40.50
2019-06-26T14:04:44.181Z,40.44
2019-06-26T14:05:44.352Z,40.50
2019-06-26T14:06:44.540Z,40.92
2019-06-26T14:07:44.732Z,41.59
2019-06-26T14:08:44.901Z,41.94
2019-06-26T14:09:45.218Z,42.02
2019-06-26T14:10:45.275Z,42.12
2019-06-26T14:11:45.458Z,42.20
2019-06-26T14:12:45.652Z,42.28
2019-06-26T14:13:45.832Z,42.57
2019-06-26T14:14:56.949Z,42.24
2019-06-26T14:15:46.193Z,41.83
2019-06-26T14:16:46.378Z,42.02
2019-06-26T14:17:46.584Z,41.78
2019-06-26T14:18:46.749Z,41.31
2019-06-26T14:19:46.937Z,41.33
2019-06-26T14:20:47.153Z,41.59
2019-06-26T14:21:47.317Z,41.92
2019-06-26T14:22:47.568Z,42.07
2019-06-26T14:23:47.692Z,42.12
2019-06-26T14:24:47.881Z,42.29
2019-06-26T14:25:48.066Z,42.29
2019-06-26T14:26:48.250Z,42.14
2019-06-26T14:27:48.433Z,41.34
2019-06-26T14:28:48.629Z,41.45
2019-06-26T14:29:48.805Z,41.44
2019-06-26T14:30:48.994Z,41.59
2019-06-26T14:31:49.193Z,41.71
2019-06-26T14:32:49.368Z,41.91
2019-06-26T14:33:49.556Z,41.82
2019-06-26T14:34:49.740Z,41.77
2019-06-26T14:35:49.925Z,41.87
2019-06-26T14:36:50.116Z,42.02
2019-06-26T14:37:50.312Z,41.80
2019-06-26T14:38:50.481Z,41.49
2019-06-26T14:39:50.664Z,41.66
2019-06-26T14:40:50.851Z,41.92
2019-06-26T14:41:51.035Z,42.16
2019-06-26T14:42:51.224Z,42.21
2019-06-26T14:43:51.406Z,42.32
2019-06-26T14:44:52.849Z,42.50
2019-06-26T14:45:51.780Z,42.44
2019-06-26T14:46:51.965Z,42.38
2019-06-26T14:47:52.155Z,42.58
2019-06-26T14:48:52.341Z,42.60
2019-06-26T14:49:52.527Z,42.65
2019-06-26T14:50:52.709Z,42.82
2019-06-26T14:51:52.898Z,42.54
2019-06-26T14:52:53.085Z,42.53
2019-06-26T14:53:53.274Z,42.48
2019-06-26T14:54:53.458Z,42.32
2019-06-26T14:55:53.642Z,42.43
2019-06-26T14:56:53.868Z,42.53
2019-06-26T14:57:54.038Z,42.41
2019-06-26T14:58:54.206Z,42.28
2019-06-26T14:59:54.398Z,42.38
2019-06-26T15:00:54.583Z,42.38
2019-06-26T15:01:54.772Z,42.45
2019-06-26T15:02:54.954Z,42.41
2019-06-26T15:03:55.137Z,42.48
2019-06-26T15:04:55.325Z,42.50
2019-06-26T15:05:55.511Z,42.38
2019-06-26T15:06:55.699Z,42.28
2019-06-26T15:07:55.882Z,42.17
2019-06-26T15:08:56.069Z,42.14
2019-06-26T15:09:56.254Z,42.07
2019-06-26T15:10:56.447Z,42.12
2019-06-26T15:11:56.621Z,42.35
2019-06-26T15:12:56.802Z,42.35
2019-06-26T15:13:56.986Z,42.32
2019-06-26T15:14:57.162Z,42.38
2019-06-26T15:15:57.350Z,42.51
2019-06-26T15:16:57.541Z,42.38
2019-06-26T15:17:57.717Z,42.51
2019-06-26T15:18:57.906Z,42.41
2019-06-26T15:19:58.092Z,42.62
2019-06-26T15:20:58.279Z,42.66
2019-06-26T15:21:59.097Z,42.57
2019-06-26T15:22:58.955Z,42.39
2019-06-26T15:23:58.845Z,42.47
2019-06-26T15:24:59.028Z,42.60
2019-06-26T15:25:59.213Z,42.54
2019-06-26T15:26:59.399Z,42.57
2019-06-26T15:27:59.602Z,42.55
2019-06-26T15:28:59.775Z,42.45
2019-06-26T15:29:59.965Z,42.25
2019-06-26T15:31:00.150Z,41.97
2019-06-26T15:32:00.374Z,41.88
2019-06-26T15:33:00.530Z,41.66
2019-06-26T15:34:00.718Z,41.33
2019-06-26T15:35:00.935Z,41.33
2019-06-26T15:36:01.096Z,41.45
2019-06-26T15:37:01.281Z,41.56
2019-06-26T15:38:01.469Z,41.31
2019-06-26T15:39:01.651Z,41.21
2019-06-26T15:40:01.839Z,41.18
2019-06-26T15:41:02.022Z,40.99
2019-06-26T15:42:02.215Z,40.91
2019-06-26T15:43:02.400Z,40.95
2019-06-26T15:44:02.583Z,40.92
2019-06-26T15:45:02.771Z,40.95
2019-06-26T15:46:02.956Z,40.81
2019-06-26T15:47:03.144Z,40.77
2019-06-26T15:48:03.328Z,40.78
2019-06-26T15:49:03.525Z,40.84
2019-06-26T15:50:03.697Z,40.69
2019-06-26T15:51:03.886Z,40.68
2019-06-26T15:52:14.543Z,40.54
2019-06-26T15:53:04.259Z,40.54
2019-06-26T15:54:04.446Z,40.53
2019-06-26T15:55:04.633Z,40.47
2019-06-26T15:56:04.818Z,40.24
2019-06-26T15:57:05.005Z,40.28
2019-06-26T15:58:05.192Z,40.31
2019-06-26T15:59:05.381Z,40.08
2019-06-26T16:00:05.561Z,39.87
2019-06-26T16:01:05.750Z,39.90
2019-06-26T16:02:05.937Z,39.94
2019-06-26T16:03:06.125Z,39.70
2019-06-26T16:04:06.307Z,39.74
2019-06-26T16:05:06.496Z,39.81
2019-06-26T16:06:06.679Z,39.72
2019-06-26T16:07:06.864Z,39.74
2019-06-26T16:08:07.056Z,39.81
2019-06-26T16:09:07.242Z,39.59
2019-06-26T16:10:07.428Z,39.53
2019-06-26T16:11:07.613Z,39.43
2019-06-26T16:12:07.801Z,39.17
2019-06-26T16:13:07.987Z,39.02
2019-06-26T16:14:08.172Z,38.99
2019-06-26T16:15:08.360Z,39.04
2019-06-26T16:16:08.677Z,39.06
2019-06-26T16:17:08.722Z,38.87
2019-06-26T16:18:08.910Z,38.68
2019-06-26T16:19:09.100Z,38.73
2019-06-26T16:20:09.279Z,38.65
2019-06-26T16:21:09.465Z,38.61
2019-06-26T16:22:09.651Z,38.64
2019-06-26T16:23:09.842Z,38.69
2019-06-26T16:24:10.021Z,38.74
2019-06-26T16:25:10.202Z,38.73
2019-06-26T16:26:10.391Z,38.67
2019-06-26T16:27:10.571Z,38.67
2019-06-26T16:28:10.754Z,38.43
2019-06-26T16:29:10.938Z,38.43
2019-06-26T16:30:11.121Z,38.23
2019-06-26T16:31:11.308Z,37.92
2019-06-26T16:32:11.496Z,37.80
2019-06-26T16:33:11.680Z,37.67
2019-06-26T16:34:11.865Z,37.78
2019-06-26T16:35:12.439Z,37.74
2019-06-26T16:36:12.231Z,37.82
2019-06-26T16:37:12.415Z,37.93
2019-06-26T16:38:12.600Z,37.93
2019-06-26T16:39:12.786Z,37.80
2019-06-26T16:40:12.968Z,37.99
2019-06-26T16:41:13.167Z,37.92
2019-06-26T16:42:13.334Z,37.87
2019-06-26T16:43:13.521Z,37.89
2019-06-26T16:44:13.703Z,37.93
2019-06-26T16:45:13.886Z,37.80
2019-06-26T16:46:14.068Z,37.67
2019-06-26T16:47:14.270Z,37.47
2019-06-26T16:48:14.439Z,37.35
2019-06-26T16:49:14.615Z,37.32
2019-06-26T16:50:14.812Z,37.08
2019-06-26T16:51:14.979Z,36.79
2019-06-26T16:52:15.165Z,36.52
2019-06-26T16:53:15.346Z,36.25
2019-06-26T16:54:15.532Z,36.09
2019-06-26T16:55:15.713Z,35.93